Jump to content

Recommended Posts

I using the latest version of AS. I keep getting the same error "Cloud layer Conflict in Metar Skipping Transistion" and it stays stuck on this. While flying thru Isabela weather clears up all of a sudden then low visiblity.Bill M

Share this post


Link to post
Share on other sites

Bill,Probably some unique METAR codes being generated. This error comes up when AS gets cloud layers that it just cannot decode. Please post the METAR if this continues and we'll take a look!Hope this helps,JimActiveSky Support

Share this post


Link to post
Share on other sites

Sme problem here,I installed ActiveWX 1.0 in my new PC and on top of tha 1.91 update.I get the same message I tryied at LGAV,LGTS and EGLL bu the message still ther. I use FS2002 and FSUIPC 3.08the metar wereLGAV 191720Z 36007KT 9999 FEW020 22/07 Q1023 NOSIGEGLL 191720Z 22009KT 150V240 CAVOK 21/11 Q1016 NOSIGLGTS 191720Z 00000KT 9999 FEW030 22/15 Q1024 NOSIGAny ideas?Chris

Share this post


Link to post
Share on other sites

Chris,Sorry you are having problems. I just tried all three METARs and none produced the conflict error. If this continues, we would need your settings posted.Hope this helps,JimActiveSky Support

Share this post


Link to post
Share on other sites

Jim,In which ports ActiveSky sends and receives the data? I am thinking the problem might be my company firewall get's in the way beacuse I am unable to d/l the offline weather too.Chris

Share this post


Link to post
Share on other sites

Chris,Quit goofing off at work!! Just kidding! I'm not real sure as to the port used. I would say the same as your Internet connection.Hope this helps,JimActiveSky Support

Share this post


Link to post
Share on other sites

Chris, I get this problem when switching from OFFLINE to the ONLINE mode without clearing the weather in FS first. Make sure you have cleared the weather in FS before you load A/S..Hope this helps.

Share this post


Link to post
Share on other sites

Unfortunately is the Firewaal ath the Job,I tryied at home and everything was working OK, back at work the same message. The strange think is that all other prograsm SB,ASRC,RW,Servinfo,ICQ,IRC are working fine without any problems.Active sky sends out to 205.156.51.200 and 137.75.100.41 at port 80 the http port, and the firewall allows port 80 connections. Propably there is something sent bacj from the servers that firewall blocks. Time for search :-)Thax any way, I ll have to settle for SB weather when at work.Chris

Share this post


Link to post
Share on other sites

Join the conversation

You can post now and register later. If you have an account, sign in now to post with your account.
Note: Your post will require moderator approval before it will be visible.

Guest
Reply to this topic...

×   Pasted as rich text.   Paste as plain text instead

  Only 75 emoji are allowed.

×   Your link has been automatically embedded.   Display as a link instead

×   Your previous content has been restored.   Clear editor

×   You cannot paste images directly. Upload or insert images from URL.

Sign in to follow this  

×
×
  • Create New...